Time;durP1;ratioP1;P1;durP2;ratioP2;P2;SDS_P1;SDS_P2;PMS_P1;PMS_P2;Temp;Humidity;BMP_temperature;BMP_pressure;BME280_temperature;BME280_humidity;BME280_pressure;Samples;Min_cycle;Max_cycle;Signal;HPM_P1;HPM_P2
2021/11/24 00:01:03;;;;;;;25.58;17.73;;;;;;;5.85;100.00;102962.81;5020017;28;20085;-74
2021/11/24 00:03:29;;;;;;;27.70;18.77;;;;;;;5.86;100.00;102964.59;5008398;28;20068;-72
2021/11/24 00:05:54;;;;;;;25.40;18.02;;;;;;;5.87;100.00;102974.25;5016378;28;20037;-73
2021/11/24 00:08:20;;;;;;;24.77;18.02;;;;;;;5.88;100.00;102969.13;5020421;28;20029;-72
2021/11/24 00:10:45;;;;;;;33.17;19.63;;;;;;;5.90;100.00;102969.22;5014929;28;20029;-73
2021/11/24 00:13:11;;;;;;;30.98;20.33;;;;;;;5.92;100.00;102965.03;5015795;28;20854;-72
2021/11/24 00:15:36;;;;;;;27.67;18.05;;;;;;;5.95;100.00;102965.25;5015869;28;20397;-72
2021/11/24 00:18:02;;;;;;;30.02;19.20;;;;;;;5.96;100.00;102967.06;5013345;28;20478;-74
2021/11/24 00:20:27;;;;;;;29.90;19.33;;;;;;;5.99;100.00;102961.19;5013922;28;20037;-74
2021/11/24 00:22:53;;;;;;;35.92;20.63;;;;;;;6.00;100.00;102955.16;5023932;28;20062;-73
2021/11/24 00:25:19;;;;;;;32.28;21.23;;;;;;;6.02;100.00;102948.31;5018040;28;20026;-72
2021/11/24 00:27:44;;;;;;;36.63;22.45;;;;;;;6.04;100.00;102951.97;5016952;28;20068;-72
2021/11/24 00:30:10;;;;;;;34.60;22.65;;;;;;;6.08;100.00;102952.25;5018968;28;20033;-72
2021/11/24 00:32:35;;;;;;;36.35;20.92;;;;;;;6.09;100.00;102958.41;5014882;28;20466;-72
2021/11/24 00:35:03;;;;;;;36.50;21.73;;;;;;;6.11;100.00;102961.13;5014164;28;20544;-73
2021/11/24 00:37:29;;;;;;;36.90;22.50;;;;;;;6.12;100.00;102960.31;5017644;28;20458;-73
2021/11/24 00:39:55;;;;;;;40.00;23.52;;;;;;;6.11;100.00;102954.19;5015471;28;20390;-73
2021/11/24 00:42:20;;;;;;;42.97;24.90;;;;;;;6.12;100.00;102949.84;5014008;28;20030;-73
2021/11/24 00:44:46;;;;;;;41.20;23.60;;;;;;;6.13;100.00;102946.44;5014554;28;20416;-73
2021/11/24 00:47:13;;;;;;;40.88;24.45;;;;;;;6.14;100.00;102945.66;5016161;28;21027;-73
2021/11/24 00:49:39;;;;;;;47.47;25.95;;;;;;;6.15;100.00;102947.47;5014375;28;20037;-72
2021/11/24 00:52:09;;;;;;;35.88;23.77;;;;;;;6.15;100.00;102947.47;5012106;28;20034;-72
2021/11/24 00:54:36;;;;;;;36.78;23.42;;;;;;;6.15;100.00;102947.47;5013215;28;20526;-73
2021/11/24 00:57:01;;;;;;;36.60;23.60;;;;;;;6.14;100.00;102940.44;5017850;28;20029;-73
2021/11/24 00:59:27;;;;;;;36.70;23.25;;;;;;;6.15;100.00;102939.63;5019924;28;20049;-73
2021/11/24 01:01:53;;;;;;;37.97;23.23;;;;;;;6.14;100.00;102940.44;5012221;28;20034;-73
2021/11/24 01:04:19;;;;;;;41.75;24.38;;;;;;;6.14;100.00;102935.19;5012779;28;20383;-73
2021/11/24 01:06:44;;;;;;;38.53;23.90;;;;;;;6.13;100.00;102939.53;5014606;28;20771;-73
2021/11/24 01:09:10;;;;;;;40.95;24.77;;;;;;;6.12;100.00;102937.72;5013310;28;20026;-73
2021/11/24 01:11:36;;;;;;;40.47;24.65;;;;;;;6.12;100.00;102936.78;5013746;28;20061;-72
2021/11/24 01:14:03;;;;;;;38.17;24.70;;;;;;;6.12;100.00;102932.47;5016835;28;20037;-72
2021/11/24 01:16:28;;;;;;;45.53;25.52;;;;;;;6.12;100.00;102918.50;5014133;28;20048;-73
2021/11/24 01:18:54;;;;;;;41.67;24.33;;;;;;;6.12;100.00;102915.88;5015923;28;20045;-73
2021/11/24 01:21:19;;;;;;;37.63;24.65;;;;;;;6.11;100.00;102914.09;5021332;28;20042;-73
2021/11/24 01:23:48;;;;;;;38.92;24.60;;;;;;;6.13;100.00;102909.84;5011399;28;20060;-72
2021/11/24 01:26:14;;;;;;;41.35;25.25;;;;;;;6.13;100.00;102909.84;5015642;28;20034;-73
2021/11/24 01:28:40;;;;;;;38.53;24.40;;;;;;;6.13;100.00;102910.78;5014205;28;20488;-72
2021/11/24 01:31:05;;;;;;;44.92;26.50;;;;;;;6.12;100.00;102908.97;5012404;28;20036;-73
2021/11/24 01:33:31;;;;;;;41.53;26.05;;;;;;;6.13;100.00;102908.16;5012363;28;20026;-72
2021/11/24 01:35:57;;;;;;;38.15;25.17;;;;;;;6.15;100.00;102905.66;5013178;28;20022;-73
2021/11/24 01:38:22;;;;;;;44.45;26.38;;;;;;;6.14;100.00;102902.13;5022406;28;20067;-73
2021/11/24 01:40:49;;;;;;;44.25;27.25;;;;;;;6.14;100.00;102899.50;5012146;28;20029;-73
2021/11/24 01:43:15;;;;;;;44.35;26.38;;;;;;;6.13;100.00;102908.16;5012526;28;20041;-72
2021/11/24 01:45:41;;;;;;;45.53;26.10;;;;;;;6.14;100.00;102907.34;5011792;28;20026;-73
2021/11/24 01:48:06;;;;;;;49.33;27.52;;;;;;;6.15;100.00;102910.88;5011371;28;20048;-73
2021/11/24 01:50:33;;;;;;;40.55;25.50;;;;;;;6.15;100.00;102910.88;5016035;28;20485;-73
2021/11/24 01:52:59;;;;;;;46.58;26.33;;;;;;;6.16;100.00;102907.44;5016111;28;20036;-72
2021/11/24 01:55:25;;;;;;;41.22;25.20;;;;;;;6.15;100.00;102905.66;5013464;28;20116;-72
2021/11/24 01:57:52;;;;;;;42.15;25.48;;;;;;;6.14;100.00;102906.44;5013572;28;20026;-72
2021/11/24 02:00:23;;;;;;;42.40;27.23;;;;;;;6.15;100.00;102900.44;5013215;28;20030;-73
2021/11/24 02:02:48;;;;;;;44.08;27.33;;;;;;;6.15;100.00;102900.44;5011368;28;20397;-73
2021/11/24 02:05:14;;;;;;;44.25;26.55;;;;;;;6.18;100.00;102900.63;5020452;28;20116;-72
2021/11/24 02:07:40;;;;;;;46.35;27.48;;;;;;;6.17;100.00;102898.81;5018352;28;20473;-72
2021/11/24 02:10:06;;;;;;;41.10;26.10;;;;;;;6.16;100.00;102892.69;5024652;28;20038;-73
2021/11/24 02:12:31;;;;;;;42.03;25.23;;;;;;;6.16;100.00;102896.97;5015996;28;20441;-72
2021/11/24 02:14:57;;;;;;;49.47;27.52;;;;;;;6.16;100.00;102881.31;5015712;28;20109;-73
2021/11/24 02:17:23;;;;;;;44.80;27.02;;;;;;;6.16;100.00;102881.31;5015036;28;20026;-73
2021/11/24 02:19:48;;;;;;;46.15;27.48;;;;;;;6.17;100.00;102885.72;5009499;28;20056;-73
2021/11/24 02:22:14;;;;;;;45.85;26.83;;;;;;;6.16;100.00;102874.38;5012860;28;20046;-73
2021/11/24 02:24:41;;;;;;;42.25;26.17;;;;;;;6.15;100.00;102872.56;5012863;28;20470;-73
2021/11/24 02:27:09;;;;;;;46.35;26.85;;;;;;;6.16;100.00;102863.00;5011895;28;20375;-73
2021/11/24 02:29:36;;;;;;;42.80;26.23;;;;;;;6.16;100.00;102857.78;5012131;28;20059;-72
2021/11/24 02:32:02;;;;;;;40.35;26.38;;;;;;;6.16;100.00;102860.38;5018751;28;20041;-73
2021/11/24 02:34:29;;;;;;;44.65;27.20;;;;;;;6.15;100.00;102853.38;5011876;28;20026;-72
2021/11/24 02:36:57;;;;;;;42.15;26.75;;;;;;;6.15;100.00;102848.16;5012695;28;20037;-73
2021/11/24 02:39:22;;;;;;;47.78;28.77;;;;;;;6.15;100.00;102850.75;5013579;28;20109;-72
2021/11/24 02:41:48;;;;;;;45.85;27.35;;;;;;;6.15;100.00;102840.31;5012743;28;20030;-72
2021/11/24 02:44:21;;;;;;;49.50;27.63;;;;;;;6.16;100.00;102834.25;5011298;28;20029;-73
2021/11/24 02:46:47;;;;;;;41.15;27.05;;;;;;;6.16;100.00;102837.78;5021817;28;20038;-73
2021/11/24 02:49:13;;;;;;;41.83;26.42;;;;;;;6.15;100.00;102829.84;5016233;28;20033;-72
2021/11/24 02:51:39;;;;;;;44.80;28.20;;;;;;;6.16;100.00;102831.63;5020809;28;20038;-72
2021/11/24 02:54:05;;;;;;;42.70;27.60;;;;;;;6.15;100.00;102822.00;5011039;28;20064;-73
2021/11/24 02:56:31;;;;;;;46.10;27.63;;;;;;;6.15;100.00;102819.41;5012834;28;20478;-73
2021/11/24 02:58:56;;;;;;;51.55;27.50;;;;;;;6.17;100.00;102809.94;5017120;28;20052;-73
2021/11/24 03:01:22;;;;;;;43.72;26.10;;;;;;;6.20;100.00;102810.13;5019538;28;20482;-73
2021/11/24 03:03:47;;;;;;;47.17;25.60;;;;;;;6.27;100.00;102814.03;5022619;28;20038;-73
2021/11/24 03:06:13;;;;;;;42.13;25.77;;;;;;;6.27;100.00;102812.34;5021573;28;20045;-73
2021/11/24 03:08:38;;;;;;;45.65;26.73;;;;;;;6.26;100.00;102800.09;5022637;28;20733;-73
2021/11/24 03:11:04;;;;;;;45.92;25.55;;;;;;;6.27;100.00;102798.38;5013063;28;20034;-74
2021/11/24 03:13:29;;;;;;;39.38;25.15;;;;;;;6.26;100.00;102800.09;5011277;28;20501;-72
2021/11/24 03:15:55;;;;;;;41.28;25.15;;;;;;;6.27;100.00;102795.75;5013165;28;20046;-73
2021/11/24 03:18:23;;;;;;;43.80;25.55;;;;;;;6.26;100.00;102792.25;5017503;28;20105;-73
2021/11/24 03:20:48;;;;;;;43.70;24.65;;;;;;;6.25;100.00;102785.19;5013133;28;20065;-73
2021/11/24 03:23:13;;;;;;;45.65;26.10;;;;;;;6.26;100.00;102792.25;5012908;28;20025;-72
2021/11/24 03:25:39;;;;;;;49.35;26.70;;;;;;;6.29;100.00;102784.59;5018481;28;20044;-72
2021/11/24 03:28:05;;;;;;;45.60;26.52;;;;;;;6.34;100.00;102782.28;5012135;28;20034;-73
2021/11/24 03:30:33;;;;;;;37.28;23.35;;;;;;;6.34;100.00;102775.34;5013294;28;20041;-73
2021/11/24 03:33:00;;;;;;;42.20;23.65;;;;;;;6.34;100.00;102759.66;5005219;28;20033;-73
2021/11/24 03:35:26;;;;;;;42.65;23.75;;;;;;;6.37;100.00;102762.47;5013125;28;20021;-73
2021/11/24 03:37:53;;;;;;;34.35;22.65;;;;;;;6.40;100.00;102760.06;5019271;28;20539;-73
2021/11/24 03:40:25;;;;;;;33.92;21.27;;;;;;;6.46;100.00;102758.63;5007824;28;20034;-72
2021/11/24 03:42:51;;;;;;;38.90;22.98;;;;;;;6.49;100.00;102758.84;5024250;28;20022;-72
2021/11/24 03:45:20;;;;;;;34.67;20.73;;;;;;;6.49;100.00;102753.63;5005393;28;20022;-73
2021/11/24 03:47:46;;;;;;;34.92;19.88;;;;;;;6.47;100.00;102753.53;5013540;28;20030;-73
2021/11/24 03:50:12;;;;;;;36.28;20.17;;;;;;;6.47;100.00;102745.69;5011832;28;20381;-73
2021/11/24 03:52:38;;;;;;;30.23;18.83;;;;;;;6.46;100.00;102741.25;5012709;28;20057;-73
2021/11/24 03:55:06;;;;;;;28.60;19.70;;;;;;;6.47;100.00;102742.13;5016550;28;20474;-73
2021/11/24 03:57:32;;;;;;;35.83;20.50;;;;;;;6.47;100.00;102736.91;5021004;28;20541;-72
2021/11/24 03:59:57;;;;;;;34.45;19.73;;;;;;;6.50;100.00;102735.41;5004281;28;20032;-73
2021/11/24 04:02:23;;;;;;;28.73;19.42;;;;;;;6.52;100.00;102736.38;5016163;28;20474;-72
2021/11/24 04:04:48;;;;;;;38.10;20.88;;;;;;;6.54;100.00;102733.91;5012374;28;20040;-72
2021/11/24 04:07:14;;;;;;;33.83;21.10;;;;;;;6.56;100.00;102737.50;5023718;28;20057;-72
2021/11/24 04:09:41;;;;;;;35.92;20.60;;;;;;;6.56;100.00;102734.88;5015612;28;20504;-73
2021/11/24 04:12:07;;;;;;;36.03;20.52;;;;;;;6.57;100.00;102721.00;5014261;28;20017;-73
2021/11/24 04:14:32;;;;;;;35.70;20.50;;;;;;;6.56;100.00;102721.81;5017537;28;20500;-73
2021/11/24 04:16:58;;;;;;;30.77;20.13;;;;;;;6.57;100.00;102728.84;5023177;28;20065;-73
2021/11/24 04:19:23;;;;;;;35.45;20.20;;;;;;;6.57;100.00;102728.84;5021638;28;20030;-74
2021/11/24 04:21:49;;;;;;;49.70;22.42;;;;;;;6.56;100.00;102724.41;5019106;28;20116;-71
2021/11/24 04:24:15;;;;;;;36.97;22.42;;;;;;;6.55;100.00;102712.13;5017662;28;20030;-73
2021/11/24 04:26:40;;;;;;;34.63;19.92;;;;;;;6.55;100.00;102714.75;5017826;28;20029;-73
2021/11/24 04:29:06;;;;;;;35.80;22.35;;;;;;;6.53;100.00;102712.03;5018758;28;20100;-73
2021/11/24 04:31:31;;;;;;;38.25;22.50;;;;;;;6.52;100.00;102709.34;5014015;28;20034;-73
2021/11/24 04:33:57;;;;;;;40.45;23.02;;;;;;;6.51;100.00;102712.75;5016503;28;20029;-74
2021/11/24 04:36:22;;;;;;;37.55;21.80;;;;;;;6.50;100.00;102711.88;5003544;28;20533;-72
2021/11/24 04:38:48;;;;;;;33.65;21.65;;;;;;;6.48;100.00;102699.50;5020205;28;20037;-72
2021/11/24 04:41:13;;;;;;;42.03;22.83;;;;;;;6.47;100.00;102695.06;5028174;28;20034;-72
2021/11/24 04:43:45;;;;;;;40.40;23.35;;;;;;;6.51;100.00;102691.84;5019406;28;20053;-73
2021/11/24 04:46:13;;;;;;;38.42;21.63;;;;;;;6.52;100.00;102693.66;5013578;28;20096;-72
2021/11/24 04:48:42;;;;;;;34.55;22.10;;;;;;;6.53;100.00;102683.28;5018459;28;20037;-73
2021/11/24 04:51:08;;;;;;;34.13;22.17;;;;;;;6.54;100.00;102686.81;5024134;28;20220;-73
2021/11/24 04:53:34;;;;;;;38.28;23.83;;;;;;;6.53;100.00;102682.38;5016856;28;20026;-73
2021/11/24 04:56:00;;;;;;;39.88;22.70;;;;;;;6.54;100.00;102689.44;5015584;28;20030;-72
2021/11/24 04:58:25;;;;;;;40.67;23.35;;;;;;;6.55;100.00;102678.13;5023197;28;20480;-73
2021/11/24 05:00:51;;;;;;;39.00;22.42;;;;;;;6.57;100.00;102679.16;5016468;28;20053;-73
2021/11/24 05:03:17;;;;;;;39.85;22.67;;;;;;;6.57;100.00;102672.19;5028965;28;20021;-72
2021/11/24 05:05:44;;;;;;;41.28;25.75;;;;;;;6.57;100.00;102672.19;5015029;28;20030;-73
2021/11/24 05:08:10;;;;;;;40.67;25.38;;;;;;;6.57;100.00;102671.31;5013437;28;20040;-72
2021/11/24 05:10:36;;;;;;;40.90;24.67;;;;;;;6.57;100.00;102671.31;5015236;28;20030;-72
2021/11/24 05:13:06;;;;;;;41.40;24.83;;;;;;;6.56;100.00;102674.72;5023402;28;20048;-73
2021/11/24 05:15:34;;;;;;;48.35;24.02;;;;;;;6.55;100.00;102672.91;5009499;28;20397;-72
2021/11/24 05:18:03;;;;;;;42.58;25.50;;;;;;;6.54;100.00;102673.75;5013384;28;20025;-73
2021/11/24 05:20:30;;;;;;;46.25;25.13;;;;;;;6.51;100.00;102666.59;5019404;28;20033;-73
2021/11/24 05:22:59;;;;;;;47.10;26.08;;;;;;;6.52;100.00;102664.88;5017885;28;20474;-73
2021/11/24 05:25:27;;;;;;;48.25;26.58;;;;;;;6.53;100.00;102659.75;5015906;28;20026;-74
2021/11/24 05:27:53;;;;;;;40.53;24.60;;;;;;;6.55;100.00;102662.44;5013399;28;20465;-72
2021/11/24 05:30:19;;;;;;;48.67;27.00;;;;;;;6.54;100.00;102665.91;5016628;28;20038;-72
2021/11/24 05:32:45;;;;;;;51.05;27.70;;;;;;;6.54;100.00;102661.56;5028029;28;20068;-73
2021/11/24 05:35:11;;;;;;;50.75;27.80;;;;;;;6.52;100.00;102657.03;5018786;28;20440;-72
2021/11/24 05:37:36;;;;;;;49.60;26.90;;;;;;;6.51;100.00;102656.16;5014670;28;20157;-74
2021/11/24 05:40:03;;;;;;;49.20;28.55;;;;;;;6.53;100.00;102656.22;5013529;28;20030;-72
2021/11/24 05:42:28;;;;;;;46.50;28.63;;;;;;;6.56;100.00;102659.91;5014490;28;20030;-74
2021/11/24 05:45:48;;;;;;;49.67;26.98;;;;;;;6.58;100.00;102662.66;5013467;28;20061;-73
2021/11/24 05:48:16;;;;;;;55.97;28.13;;;;;;;6.56;100.00;102661.66;5019649;28;20038;-72
2021/11/24 05:50:36;;;;;;;50.42;28.10;;;;;;;6.55;100.00;102658.13;5011973;28;20173;-72
2021/11/24 05:53:02;;;;;;;48.03;27.60;;;;;;;6.56;100.00;102659.91;5018970;28;20478;-73
2021/11/24 05:55:30;;;;;;;50.92;27.67;;;;;;;6.57;100.00;102655.63;5016421;28;20414;-72
2021/11/24 05:57:57;;;;;;;49.15;29.90;;;;;;;6.58;100.00;102654.81;5012703;28;20031;-73
2021/11/24 06:00:22;;;;;;;52.78;27.35;;;;;;;6.61;100.00;102648.88;5014758;28;20034;-72
2021/11/24 06:02:48;;;;;;;45.72;27.38;;;;;;;6.63;100.00;102645.50;5021238;28;20025;-73
2021/11/24 06:05:14;;;;;;;48.00;28.92;;;;;;;6.62;100.00;102641.13;5006389;28;20030;-75
2021/11/24 06:07:40;;;;;;;47.72;26.90;;;;;;;6.65;100.00;102636.06;5012096;28;20106;-74
2021/11/24 06:10:09;;;;;;;47.67;29.13;;;;;;;6.64;100.00;102641.22;5012459;28;20034;-74
2021/11/24 06:12:34;;;;;;;55.80;28.50;;;;;;;6.65;100.00;102633.44;5013088;28;20037;-73
2021/11/24 06:15:03;;;;;;;56.85;29.58;;;;;;;6.65;100.00;102625.59;5021130;28;20033;-75
2021/11/24 06:17:29;;;;;;;47.10;27.95;;;;;;;6.65;100.00;102628.22;5017280;28;20030;-74
2021/11/24 06:19:54;;;;;;;57.50;28.98;;;;;;;6.65;100.00;102630.84;5014187;28;20034;-75
2021/11/24 06:22:20;;;;;;;50.25;29.10;;;;;;;6.65;100.00;102629.94;5015644;28;20166;-73
2021/11/24 06:24:46;;;;;;;60.90;32.53;;;;;;;6.66;100.00;102629.09;5022062;28;21782;-73
2021/11/24 06:27:12;;;;;;;60.92;31.63;;;;;;;6.67;100.00;102626.59;5015830;28;20453;-74
2021/11/24 06:29:37;;;;;;;54.33;30.30;;;;;;;6.66;100.00;102627.41;5013356;28;20060;-73
2021/11/24 06:32:04;;;;;;;58.70;32.85;;;;;;;6.66;100.00;102624.81;5025294;28;20034;-73
2021/11/24 06:34:30;;;;;;;55.97;30.40;;;;;;;6.66;100.00;102614.34;5010781;28;20421;-74
2021/11/24 06:36:57;;;;;;;71.70;32.60;;;;;;;6.68;100.00;102612.69;5011866;28;20026;-73
2021/11/24 06:39:24;;;;;;;61.30;31.85;;;;;;;6.71;100.00;102607.66;5010923;28;20061;-73
2021/11/24 06:41:50;;;;;;;58.25;31.55;;;;;;;6.72;100.00;102613.81;5013603;28;20025;-73
2021/11/24 06:44:16;;;;;;;60.35;32.92;;;;;;;6.72;100.00;102608.56;5013095;28;20394;-74
2021/11/24 06:46:42;;;;;;;60.88;32.58;;;;;;;6.72;100.00;102606.84;5012667;28;20029;-75
2021/11/24 06:49:08;;;;;;;65.63;33.50;;;;;;;6.71;100.00;102602.41;5018148;28;20034;-78
2021/11/24 06:51:34;;;;;;;62.92;33.25;;;;;;;6.72;100.00;102604.22;5016159;28;20370;-74
2021/11/24 06:53:59;;;;;;;64.78;34.17;;;;;;;6.75;100.00;102596.59;5013451;28;20025;-75
2021/11/24 06:56:25;;;;;;;60.97;33.30;;;;;;;6.78;100.00;102598.47;5018553;28;20021;-75
2021/11/24 06:58:51;;;;;;;61.30;33.00;;;;;;;6.78;100.00;102592.34;5020821;28;20117;-75
2021/11/24 07:01:16;;;;;;;70.25;34.45;;;;;;;6.74;100.00;102592.16;5015362;28;20057;-74
2021/11/24 07:03:42;;;;;;;63.67;33.58;;;;;;;6.75;100.00;102588.75;5014360;28;20025;-74
2021/11/24 07:06:08;;;;;;;64.57;33.65;;;;;;;6.75;100.00;102598.28;5014877;28;20045;-75
2021/11/24 07:08:34;;;;;;;64.32;33.38;;;;;;;6.75;100.00;102590.44;5018281;28;20018;-76
2021/11/24 07:10:59;;;;;;;64.85;34.17;;;;;;;6.74;100.00;102592.16;5007291;28;20048;-74
2021/11/24 07:13:25;;;;;;;69.35;36.05;;;;;;;6.74;100.00;102592.16;5014673;28;20025;-76
2021/11/24 07:15:50;;;;;;;63.50;34.95;;;;;;;6.74;100.00;102592.16;5012131;28;20092;-75
2021/11/24 07:18:16;;;;;;;61.22;33.03;;;;;;;6.78;100.00;102587.09;5017046;28;20024;-75
2021/11/24 07:20:41;;;;;;;73.85;37.28;;;;;;;6.78;100.00;102587.09;5021541;28;20095;-74
2021/11/24 07:23:07;;;;;;;60.22;34.95;;;;;;;6.80;100.00;102590.72;5017163;28;20049;-74
2021/11/24 07:25:32;;;;;;;69.13;35.13;;;;;;;6.82;100.00;102599.56;5014849;28;20449;-75
2021/11/24 07:27:58;;;;;;;62.20;34.28;;;;;;;6.82;100.00;102600.44;5021278;28;20422;-75
2021/11/24 07:30:24;;;;;;;66.57;34.55;;;;;;;6.85;100.00;102591.88;5013167;28;20079;-74
2021/11/24 07:32:50;;;;;;;60.80;33.95;;;;;;;6.85;100.00;102592.81;5011426;28;20418;-75
2021/11/24 07:35:16;;;;;;;64.40;34.25;;;;;;;6.86;100.00;102592.00;5013532;28;20378;-75
2021/11/24 07:37:42;;;;;;;61.65;33.25;;;;;;;6.89;100.00;102596.50;5015504;28;20053;-75
2021/11/24 07:40:11;;;;;;;59.42;33.15;;;;;;;6.87;100.00;102592.88;5012041;28;20100;-75
2021/11/24 07:42:37;;;;;;;61.75;34.38;;;;;;;6.85;100.00;102586.66;5014533;28;20025;-75
2021/11/24 07:45:04;;;;;;;61.83;32.70;;;;;;;6.88;100.00;102589.47;5017749;28;20551;-74
2021/11/24 07:47:29;;;;;;;67.53;34.20;;;;;;;6.87;100.00;102585.03;5026175;28;20493;-74
2021/11/24 07:49:55;;;;;;;57.88;31.48;;;;;;;6.89;100.00;102586.03;5018842;28;20045;-75
2021/11/24 07:52:24;;;;;;;62.72;34.30;;;;;;;6.87;100.00;102580.69;5021612;28;20049;-75
2021/11/24 07:54:53;;;;;;;62.28;34.72;;;;;;;6.88;100.00;102585.13;5020946;28;20026;-75
2021/11/24 07:57:20;;;;;;;62.28;33.97;;;;;;;6.91;100.00;102589.66;5014837;28;20439;-74
2021/11/24 07:59:48;;;;;;;59.80;32.45;;;;;;;6.96;100.00;102582.97;5019169;28;20041;-74
2021/11/24 08:02:14;;;;;;;62.80;34.05;;;;;;;6.92;100.00;102571.41;5016346;28;20029;-76
2021/11/24 08:04:39;;;;;;;66.18;35.05;;;;;;;6.92;100.00;102573.13;5012761;28;20092;-74
2021/11/24 08:07:05;;;;;;;67.03;35.60;;;;;;;6.93;100.00;102569.69;5021223;28;20034;-75
2021/11/24 08:09:31;;;;;;;66.55;35.70;;;;;;;6.94;100.00;102562.75;5017590;28;20022;-75
2021/11/24 08:11:58;;;;;;;65.97;34.75;;;;;;;6.97;100.00;102563.81;5016893;28;20025;-74
2021/11/24 08:14:26;;;;;;;62.90;34.50;;;;;;;6.97;100.00;102561.19;5019482;28;20022;-75
2021/11/24 08:16:52;;;;;;;59.65;33.10;;;;;;;7.00;100.00;102564.03;5017348;28;20034;-75
2021/11/24 08:19:17;;;;;;;53.83;31.02;;;;;;;7.04;100.00;102566.00;5018270;28;20044;-74
2021/11/24 08:21:44;;;;;;;57.13;31.67;;;;;;;7.07;100.00;102553.09;5018271;28;20038;-75
2021/11/24 08:24:10;;;;;;;54.80;32.05;;;;;;;7.11;100.00;102559.41;5026212;28;20029;-75
2021/11/24 08:26:36;;;;;;;61.00;32.90;;;;;;;7.12;100.00;102552.47;5023520;28;20025;-74
2021/11/24 08:29:03;;;;;;;55.67;32.17;;;;;;;7.13;100.00;102556.88;5028999;28;20018;-76
2021/11/24 08:31:29;;;;;;;55.90;31.42;;;;;;;7.16;100.00;102549.22;5027469;28;20103;-75
2021/11/24 08:33:59;;;;;;;50.92;30.83;;;;;;;7.16;100.00;102544.88;5022417;28;20160;-75
2021/11/24 08:36:26;;;;;;;50.33;30.60;;;;;;;7.18;100.00;102544.97;5022234;28;20100;-75
2021/11/24 08:38:52;;;;;;;54.85;29.88;;;;;;;7.22;100.00;102539.09;5025881;28;20030;-74
2021/11/24 08:41:18;;;;;;;53.22;29.20;;;;;;;7.26;100.00;102538.47;5018276;28;20064;-74
2021/11/24 08:43:43;;;;;;;52.30;30.73;;;;;;;7.27;100.00;102532.41;5014545;28;20030;-75
2021/11/24 08:46:09;;;;;;;53.30;29.63;;;;;;;7.30;100.00;102532.59;5012538;28;20116;-76
2021/11/24 08:48:35;;;;;;;49.05;28.60;;;;;;;7.36;100.00;102532.91;5013219;28;20022;-74
2021/11/24 08:51:00;;;;;;;47.40;27.88;;;;;;;7.38;100.00;102530.38;5019532;28;20493;-75
2021/11/24 08:53:27;;;;;;;44.40;26.15;;;;;;;7.41;100.00;102526.22;5023619;28;20048;-74
2021/11/24 08:55:53;;;;;;;47.75;28.40;;;;;;;7.47;100.00;102519.53;5025004;28;20033;-75
2021/11/24 08:58:19;;;;;;;46.90;27.08;;;;;;;7.46;100.00;102522.97;5015284;28;20112;-74
2021/11/24 09:00:45;;;;;;;51.95;30.13;;;;;;;7.46;100.00;102525.59;5030304;28;20029;-73
2021/11/24 09:03:11;;;;;;;49.60;27.35;;;;;;;7.48;100.00;102526.59;5028437;28;20037;-76
2021/11/24 09:05:38;;;;;;;45.08;26.08;;;;;;;7.49;100.00;102515.28;5017932;28;20053;-76
2021/11/24 09:08:04;;;;;;;49.80;28.05;;;;;;;7.50;100.00;102514.47;5017456;28;20089;-76
2021/11/24 09:10:31;;;;;;;40.63;25.65;;;;;;;7.52;100.00;102518.97;5017691;28;20026;-75
2021/11/24 09:12:59;;;;;;;44.72;25.45;;;;;;;7.54;100.00;102511.19;5021867;28;20044;-75
2021/11/24 09:15:26;;;;;;;39.65;23.35;;;;;;;7.57;100.00;102517.53;5006594;28;20019;-74
2021/11/24 09:17:51;;;;;;;36.10;22.90;;;;;;;7.59;100.00;102509.75;5011066;28;20048;-75
2021/11/24 09:20:20;;;;;;;37.65;23.65;;;;;;;7.61;100.00;102516.00;5009103;28;20025;-74
2021/11/24 09:22:47;;;;;;;35.40;21.98;;;;;;;7.68;100.00;102510.25;5012146;28;20512;-73
2021/11/24 09:25:17;;;;;;;38.60;22.55;;;;;;;7.70;100.00;102512.97;5019615;28;20033;-74
2021/11/24 09:27:49;;;;;;;38.75;21.48;;;;;;;7.72;100.00;102507.00;5017111;28;20108;-74
2021/11/24 09:30:16;;;;;;;36.30;21.13;;;;;;;7.74;100.00;102505.34;5020894;28;20085;-74
2021/11/24 09:32:43;;;;;;;35.08;21.35;;;;;;;7.76;100.00;102494.97;5015306;28;20504;-76
2021/11/24 09:35:10;;;;;;;30.60;20.45;;;;;;;7.76;100.00;102492.34;5020206;28;20112;-75
2021/11/24 09:37:36;;;;;;;31.67;19.90;;;;;;;7.79;100.00;102496.84;5017047;28;20417;-75
2021/11/24 09:40:02;;;;;;;31.13;20.17;;;;;;;7.83;100.00;102489.25;5028474;28;20032;-75
2021/11/24 09:42:29;;;;;;;35.15;21.75;;;;;;;7.84;100.00;102485.81;5014777;28;20057;-74
2021/11/24 09:44:57;;;;;;;34.38;20.65;;;;;;;7.88;100.00;102487.78;5017311;28;20026;-74
2021/11/24 09:47:25;;;;;;;30.50;19.15;;;;;;;7.88;100.00;102476.38;5013394;28;20451;-75
2021/11/24 09:49:56;;;;;;;33.78;20.30;;;;;;;7.90;100.00;102486.13;5014198;28;20548;-74
2021/11/24 09:52:23;;;;;;;25.50;17.55;;;;;;;7.91;100.00;102482.69;5025098;28;20033;-74
2021/11/24 09:54:50;;;;;;;24.35;16.73;;;;;;;7.94;100.00;102484.56;5016222;28;20025;-75
2021/11/24 09:57:21;;;;;;;26.08;16.25;;;;;;;7.98;100.00;102476.06;5028143;28;20028;-75
2021/11/24 09:59:47;;;;;;;22.77;15.02;;;;;;;7.96;100.00;102485.53;5023667;28;20030;-75
2021/11/24 10:02:13;;;;;;;24.75;17.65;;;;;;;7.97;100.00;102471.63;5018386;28;20025;-73
2021/11/24 10:04:43;;;;;;;33.00;16.85;;;;;;;7.94;100.00;102471.47;5027885;28;20493;-74
2021/11/24 10:07:13;;;;;;;30.33;17.95;;;;;;;7.94;100.00;102484.56;5028486;28;20033;-74
2021/11/24 10:09:40;;;;;;;22.88;16.05;;;;;;;7.92;100.00;102475.72;5012299;28;20034;-75
2021/11/24 10:12:06;;;;;;;23.88;16.63;;;;;;;7.92;100.00;102478.34;5015575;28;20386;-76
2021/11/24 10:14:33;;;;;;;26.02;15.70;;;;;;;7.90;100.00;102470.38;5014240;28;20576;-75
2021/11/24 10:17:24;;;;;;;22.77;15.32;;;;;;;7.90;100.00;102472.13;5031231;28;20029;-74
2021/11/24 10:20:06;;;;;;;23.08;14.73;;;;;;;7.87;100.00;102459.75;5011899;28;20498;-74
2021/11/24 10:22:34;;;;;;;23.90;15.38;;;;;;;7.86;100.00;102462.28;5016666;28;20516;-74
2021/11/24 10:25:12;;;;;;;23.60;14.38;;;;;;;7.85;100.00;102450.88;5014293;28;20089;-74
2021/11/24 10:27:45;;;;;;;18.20;13.48;;;;;;;7.87;100.00;102451.00;5012747;28;20455;-74
2021/11/24 10:30:25;;;;;;;18.10;12.60;;;;;;;7.89;100.00;102438.88;5015121;28;20030;-76
2021/11/24 10:32:51;;;;;;;18.08;12.88;;;;;;;7.89;100.00;102431.00;5009075;28;20105;-75
2021/11/24 10:35:31;;;;;;;19.83;14.77;;;;;;;7.92;100.00;102425.91;5016449;28;20045;-75
2021/11/24 10:38:17;;;;;;;20.52;13.85;;;;;;;7.91;99.80;102418.88;5016144;28;20033;-75
2021/11/24 10:40:46;;;;;;;23.58;13.40;;;;;;;7.92;99.63;102416.34;5014097;28;20455;-74
2021/11/24 10:43:13;;;;;;;19.48;13.18;;;;;;;7.95;99.53;102413.00;5015449;28;20072;-75
2021/11/24 10:45:50;;;;;;;15.75;12.30;;;;;;;7.99;99.51;102414.03;5022664;28;20470;-74
2021/11/24 10:48:25;;;;;;;21.98;13.93;;;;;;;7.97;99.82;102408.72;5012152;28;20053;-75
2021/11/24 10:50:50;;;;;;;22.35;12.68;;;;;;;7.99;100.00;102404.47;5017456;28;20045;-74
2021/11/24 10:53:20;;;;;;;17.48;10.98;;;;;;;8.01;98.74;102394.94;5012828;28;20018;-75
2021/11/24 10:55:45;;;;;;;17.70;10.88;;;;;;;8.03;97.18;102384.53;5020518;28;20091;-75
2021/11/24 10:58:18;;;;;;;19.80;10.30;;;;;;;8.01;96.79;102381.84;5016199;28;20030;-75
2021/11/24 11:00:46;;;;;;;21.08;10.75;;;;;;;8.02;97.26;102374.88;5018925;28;20041;-75
2021/11/24 11:03:12;;;;;;;14.75;12.10;;;;;;;8.01;97.38;102368.72;5014620;28;20030;-75
2021/11/24 11:05:42;;;;;;;19.00;12.07;;;;;;;8.00;97.62;102366.91;5011466;28;20037;-75
2021/11/24 11:08:10;;;;;;;19.85;12.65;;;;;;;8.06;97.84;102364.63;5013553;28;20022;-75